createdAt,value
2019-02-08T00:00:55.632Z,100704.63
2019-02-08T00:03:27.499Z,100707.86
2019-02-08T00:05:59.473Z,100698.63
2019-02-08T00:08:31.293Z,100716.37
2019-02-08T00:11:03.304Z,100707.86
2019-02-08T00:13:35.206Z,100705.25
2019-02-08T00:16:08.101Z,100708.77
2019-02-08T00:18:39.878Z,100706.71
2019-02-08T00:21:11.819Z,100700.62
2019-02-08T00:23:43.784Z,100706.71
2019-02-08T00:26:15.683Z,100702.11
2019-02-08T00:28:47.529Z,100697.46
2019-02-08T00:31:19.429Z,100696.98
2019-02-08T00:33:51.460Z,100693.12
2019-02-08T00:36:23.259Z,100704.55
2019-02-08T00:38:56.276Z,100711.53
2019-02-08T00:41:28.101Z,100707.67
2019-02-08T00:43:59.918Z,100708.05
2019-02-08T00:46:31.776Z,100700.33
2019-02-08T00:49:03.620Z,100702.48
2019-02-08T00:51:35.460Z,100697.69
2019-02-08T00:54:07.558Z,100709.06
2019-02-08T00:56:39.394Z,100699.56
2019-02-08T00:59:11.689Z,100711.25
2019-02-08T01:01:43.484Z,100712.16
2019-02-08T01:04:18.336Z,100712.22
2019-02-08T01:06:50.192Z,100707.03
2019-02-08T01:09:22.059Z,100705.72
2019-02-08T01:11:54.118Z,100714.00
2019-02-08T01:14:25.957Z,100714.45
2019-02-08T01:16:57.764Z,100714.52
2019-02-08T01:19:29.668Z,100711.92
2019-02-08T01:22:01.587Z,100708.84
2019-02-08T01:24:35.237Z,100710.54
2019-02-08T01:27:07.021Z,100709.09
2019-02-08T01:29:39.071Z,100700.95
2019-02-08T01:32:10.983Z,100701.34
2019-02-08T01:34:42.786Z,100703.02
2019-02-08T01:37:14.561Z,100707.00
2019-02-08T01:39:46.497Z,100714.41
2019-02-08T01:42:18.294Z,100714.86
2019-02-08T01:44:50.097Z,100723.97
2019-02-08T01:47:21.968Z,100719.94
2019-02-08T01:49:53.822Z,100718.60
2019-02-08T01:52:27.690Z,100718.69
2019-02-08T01:54:59.568Z,100721.24
2019-02-08T01:57:31.376Z,100720.05
2019-02-08T02:00:03.416Z,100721.41
2019-02-08T02:02:36.052Z,100720.90
2019-02-08T02:05:08.119Z,100717.52
2019-02-08T02:07:39.949Z,100719.25
2019-02-08T02:10:26.790Z,100726.13
2019-02-08T02:12:58.691Z,100723.11
2019-02-08T02:15:31.252Z,100725.61
2019-02-08T02:18:03.343Z,100729.13
2019-02-08T02:20:37.900Z,100735.29
2019-02-08T02:23:12.485Z,100730.41
2019-02-08T02:25:44.374Z,100746.94
2019-02-08T02:28:16.396Z,100750.38
2019-02-08T02:30:48.180Z,100751.28
2019-02-08T02:33:20.031Z,100749.89
2019-02-08T02:35:54.695Z,100751.92
2019-02-08T02:38:26.471Z,100754.53
2019-02-08T02:40:58.375Z,100754.02
2019-02-08T02:43:30.425Z,100754.44
2019-02-08T02:46:02.325Z,100761.69
2019-02-08T02:48:34.117Z,100758.26
2019-02-08T02:51:09.026Z,100756.92
2019-02-08T02:53:40.944Z,100756.14
2019-02-08T02:56:12.847Z,100755.77
2019-02-08T02:58:44.721Z,100754.05
2019-02-08T03:01:16.499Z,100755.37
2019-02-08T03:03:48.379Z,100754.92
2019-02-08T03:06:20.243Z,100756.63
2019-02-08T03:08:52.057Z,100754.56
2019-02-08T03:11:23.905Z,100761.97
2019-02-08T03:13:55.684Z,100759.75
2019-02-08T03:16:27.438Z,100751.92
2019-02-08T03:18:59.297Z,100752.71
2019-02-08T03:21:31.058Z,100756.05
2019-02-08T03:24:02.860Z,100748.73
2019-02-08T03:26:34.605Z,100753.17
2019-02-08T03:29:06.509Z,100757.47
2019-02-08T03:31:38.454Z,100757.47
2019-02-08T03:34:10.327Z,100754.31
2019-02-08T03:36:42.127Z,100762.14
2019-02-08T03:39:13.909Z,100768.27
2019-02-08T03:41:45.768Z,100768.17
2019-02-08T03:44:17.583Z,100761.66
2019-02-08T03:46:49.373Z,100765.53
2019-02-08T03:49:21.318Z,100766.19
2019-02-08T03:51:53.140Z,100776.78
2019-02-08T03:54:24.989Z,100773.91
2019-02-08T03:56:56.768Z,100772.45
2019-02-08T03:59:28.571Z,100774.38
2019-02-08T04:02:00.410Z,100783.99
2019-02-08T04:04:32.188Z,100779.23
2019-02-08T04:07:04.087Z,100774.80
2019-02-08T04:09:35.847Z,100781.58
2019-02-08T04:12:07.684Z,100790.64
2019-02-08T04:14:39.459Z,100791.55
2019-02-08T04:17:11.286Z,100794.62
2019-02-08T04:19:43.150Z,100792.57
2019-02-08T04:22:14.999Z,100788.20
2019-02-08T04:24:46.856Z,100795.05
2019-02-08T04:27:18.759Z,100798.50
2019-02-08T04:29:50.485Z,100797.00
2019-02-08T04:32:22.352Z,100795.73
2019-02-08T04:34:54.240Z,100800.14
2019-02-08T04:37:26.178Z,100791.98
2019-02-08T04:39:58.027Z,100798.70
2019-02-08T04:42:29.884Z,100803.07
2019-02-08T04:45:01.684Z,100806.89
2019-02-08T04:47:33.558Z,100807.94
2019-02-08T04:50:06.594Z,100804.83
2019-02-08T04:52:38.436Z,100809.14
2019-02-08T04:55:13.718Z,100810.70
2019-02-08T04:57:45.495Z,100814.45
2019-02-08T05:00:30.027Z,100811.45
2019-02-08T05:03:02.212Z,100810.47
2019-02-08T05:05:34.097Z,100815.59
2019-02-08T05:08:06.283Z,100819.41
2019-02-08T05:10:38.174Z,100828.84
2019-02-08T05:13:09.954Z,100826.27
2019-02-08T05:15:41.804Z,100835.53
2019-02-08T05:18:13.631Z,100831.77
2019-02-08T05:20:45.422Z,100838.38
2019-02-08T05:23:17.210Z,100834.98
2019-02-08T05:25:49.129Z,100827.97
2019-02-08T05:28:20.998Z,100831.25
2019-02-08T05:30:52.822Z,100837.42
2019-02-08T05:33:24.694Z,100833.97
2019-02-08T05:35:56.510Z,100839.56
2019-02-08T05:38:28.418Z,100849.55
2019-02-08T05:41:00.294Z,100844.18
2019-02-08T05:43:32.341Z,100847.74
2019-02-08T05:46:04.286Z,100854.76
2019-02-08T05:48:36.286Z,100848.41
2019-02-08T05:51:08.281Z,100847.80
2019-02-08T05:53:40.315Z,100848.53
2019-02-08T05:56:12.432Z,100848.87
2019-02-08T05:58:44.427Z,100846.11
2019-02-08T06:01:19.142Z,100843.04
2019-02-08T06:03:51.028Z,100845.95
2019-02-08T06:06:23.096Z,100847.94
2019-02-08T06:08:55.023Z,100850.84
2019-02-08T06:11:27.108Z,100857.02
2019-02-08T06:13:59.731Z,100862.53
2019-02-08T06:16:31.858Z,100857.52
2019-02-08T06:19:03.902Z,100866.26
2019-02-08T06:21:35.884Z,100862.47
2019-02-08T06:24:07.637Z,100859.98
2019-02-08T06:26:42.633Z,100865.93
2019-02-08T06:29:14.517Z,100865.47
2019-02-08T06:31:48.317Z,100862.28
2019-02-08T06:34:20.274Z,100866.58
2019-02-08T06:36:52.146Z,100868.61
2019-02-08T06:39:23.983Z,100877.68
2019-02-08T06:41:55.792Z,100880.57
2019-02-08T06:44:27.634Z,100875.90
2019-02-08T06:46:59.573Z,100886.55
2019-02-08T06:49:32.577Z,100889.66
2019-02-08T06:52:07.345Z,100889.70
2019-02-08T06:54:39.194Z,100891.37
2019-02-08T06:57:24.849Z,100894.95
2019-02-08T07:00:14.519Z,100892.50
2019-02-08T07:03:11.257Z,100890.63
2019-02-08T07:06:01.971Z,100897.41
2019-02-08T07:08:55.571Z,100897.91
2019-02-08T07:11:49.506Z,100894.00
2019-02-08T07:14:49.434Z,100901.13
2019-02-08T07:17:29.763Z,100898.66
2019-02-08T07:20:20.445Z,100907.37
2019-02-08T07:23:11.184Z,100904.05
2019-02-08T07:26:20.039Z,100897.49
2019-02-08T07:29:16.742Z,100902.84
2019-02-08T07:32:05.930Z,100899.62
2019-02-08T07:34:55.864Z,100890.64
2019-02-08T07:37:50.820Z,100895.56
2019-02-08T07:40:44.058Z,100898.69
2019-02-08T07:43:33.537Z,100898.84
2019-02-08T07:46:22.525Z,100904.28
2019-02-08T07:49:23.157Z,100903.08
2019-02-08T07:52:28.954Z,100905.35
2019-02-08T07:55:12.415Z,100901.60
2019-02-08T07:58:02.013Z,100900.91
2019-02-08T08:00:55.429Z,100893.52
2019-02-08T08:04:01.050Z,100896.66
2019-02-08T08:06:44.970Z,100893.22
2019-02-08T08:09:22.458Z,100896.41
2019-02-08T08:12:31.305Z,100892.96
2019-02-08T08:15:22.197Z,100891.33
2019-02-08T08:18:16.159Z,100895.24
2019-02-08T08:21:07.457Z,100896.22
2019-02-08T08:23:59.593Z,100890.23
2019-02-08T08:26:49.830Z,100886.84
2019-02-08T08:29:40.347Z,100887.33
2019-02-08T08:32:37.003Z,100895.28
2019-02-08T08:36:17.151Z,100892.73
2019-02-08T08:39:58.133Z,100894.56
2019-02-08T08:43:28.997Z,100895.95
2019-02-08T08:46:33.550Z,100906.97
2019-02-08T08:50:04.179Z,100911.80
2019-02-08T08:53:24.933Z,100913.62
2019-02-08T08:57:12.444Z,100914.20
2019-02-08T09:00:44.968Z,100911.64
2019-02-08T09:04:27.401Z,100913.88
2019-02-08T09:08:07.597Z,100910.93
2019-02-08T09:11:47.191Z,100904.00
2019-02-08T09:15:06.296Z,100908.94
2019-02-08T09:18:45.908Z,100909.47
2019-02-08T09:22:16.924Z,100914.74
2019-02-08T09:25:40.084Z,100906.92
2019-02-08T09:29:03.854Z,100910.44
2019-02-08T09:32:44.734Z,100906.97
2019-02-08T09:36:19.637Z,100914.48
2019-02-08T09:39:51.340Z,100915.42
2019-02-08T09:43:35.691Z,100914.17
2019-02-08T09:47:09.967Z,100908.92
2019-02-08T09:50:46.436Z,100909.44
2019-02-08T09:54:08.444Z,100910.79
2019-02-08T09:57:37.977Z,100911.25
2019-02-08T10:00:56.644Z,100899.89
2019-02-08T10:04:35.393Z,100895.98
2019-02-08T10:07:53.143Z,100895.13
2019-02-08T10:11:27.491Z,100883.32
2019-02-08T10:15:09.983Z,100890.78
2019-02-08T10:18:44.696Z,100903.47
2019-02-08T10:22:14.233Z,100901.30
2019-02-08T10:26:06.614Z,100888.58
2019-02-08T10:29:30.410Z,100885.52
2019-02-08T10:32:56.803Z,100884.17
2019-02-08T10:36:30.179Z,100881.53
2019-02-08T10:39:48.607Z,100881.95
2019-02-08T10:42:57.869Z,100882.39
2019-02-08T10:46:21.115Z,100875.79
2019-02-08T10:49:58.839Z,100869.19
2019-02-08T10:53:41.490Z,100865.67
2019-02-08T10:57:18.451Z,100871.78
2019-02-08T11:00:57.988Z,100873.51
2019-02-08T11:04:19.145Z,100865.14
2019-02-08T11:07:55.418Z,100861.63
2019-02-08T11:11:33.621Z,100857.27
2019-02-08T11:15:07.272Z,100849.78
2019-02-08T11:18:40.285Z,100847.14
2019-02-08T11:21:12.066Z,100844.50
2019-02-08T11:23:43.899Z,100849.73
2019-02-08T11:26:22.535Z,100849.73
2019-02-08T11:28:51.265Z,100839.59
2019-02-08T11:31:23.063Z,100847.00
2019-02-08T11:33:54.919Z,100845.53
2019-02-08T11:36:26.857Z,100843.67
2019-02-08T11:38:58.685Z,100844.35
2019-02-08T11:41:30.584Z,100835.58
2019-02-08T11:44:02.447Z,100825.37
2019-02-08T11:46:34.250Z,100825.74
2019-02-08T11:49:06.801Z,100819.30
2019-02-08T11:51:38.627Z,100815.64
2019-02-08T11:54:13.780Z,100814.77
2019-02-08T11:56:45.707Z,100824.23
2019-02-08T11:59:17.641Z,100821.97
2019-02-08T12:01:55.951Z,100826.34
2019-02-08T12:04:29.019Z,100823.45
2019-02-08T12:07:04.809Z,100817.03
2019-02-08T12:09:36.889Z,100810.78
2019-02-08T12:12:10.852Z,100805.17
2019-02-08T12:14:54.794Z,100802.16
2019-02-08T12:17:27.951Z,100793.50
2019-02-08T12:20:02.681Z,100798.42
2019-02-08T12:22:36.233Z,100793.68
2019-02-08T12:25:09.032Z,100788.78
2019-02-08T12:27:42.855Z,100785.26
2019-02-08T12:30:29.838Z,100782.17
2019-02-08T12:33:03.951Z,100777.84
2019-02-08T12:35:53.463Z,100774.27
2019-02-08T12:39:08.120Z,100779.97
2019-02-08T12:41:46.738Z,100769.86
2019-02-08T12:44:36.669Z,100774.27
2019-02-08T12:47:23.324Z,100764.60
2019-02-08T12:50:00.849Z,100770.36
2019-02-08T12:52:37.790Z,100763.80
2019-02-08T12:55:46.381Z,100758.95
2019-02-08T12:58:45.161Z,100754.56
2019-02-08T13:01:25.355Z,100753.25
2019-02-08T13:04:55.077Z,100751.41
2019-02-08T13:07:41.002Z,100752.36
2019-02-08T13:10:20.365Z,100750.64
2019-02-08T13:12:53.188Z,100742.76
2019-02-08T13:15:30.095Z,100738.34
2019-02-08T13:18:06.577Z,100739.28
2019-02-08T13:20:42.418Z,100735.73
2019-02-08T13:24:18.359Z,100737.09
2019-02-08T13:27:06.427Z,100734.47
2019-02-08T13:29:42.212Z,100729.63
2019-02-08T13:32:22.954Z,100742.44
2019-02-08T13:34:59.621Z,100745.96
2019-02-08T13:37:45.274Z,100747.21
2019-02-08T13:40:43.494Z,100747.21
2019-02-08T13:43:33.740Z,100750.29
2019-02-08T13:46:19.739Z,100744.56
2019-02-08T13:49:33.855Z,100741.91
2019-02-08T13:52:08.466Z,100748.08
2019-02-08T13:54:48.070Z,100740.98
2019-02-08T13:57:26.304Z,100739.23
2019-02-08T14:00:46.859Z,100733.59
2019-02-08T14:03:21.257Z,100728.81
2019-02-08T14:06:04.946Z,100728.39
2019-02-08T14:08:37.871Z,100735.42
2019-02-08T14:11:09.774Z,100727.56
2019-02-08T14:13:43.465Z,100724.92
2019-02-08T14:16:15.426Z,100720.99
2019-02-08T14:18:51.017Z,100716.65
2019-02-08T14:21:22.884Z,100719.66
2019-02-08T14:23:55.012Z,100723.11
2019-02-08T14:26:27.110Z,100723.11
2019-02-08T14:29:01.578Z,100718.27
2019-02-08T14:31:33.480Z,100721.66
2019-02-08T14:34:05.662Z,100721.11
2019-02-08T14:36:37.826Z,100720.20
2019-02-08T14:39:12.114Z,100723.19
2019-02-08T14:41:48.586Z,100721.80
2019-02-08T14:44:23.940Z,100725.61
2019-02-08T14:46:58.015Z,100731.55
2019-02-08T14:49:32.620Z,100726.80
2019-02-08T14:52:04.566Z,100727.86
2019-02-08T14:54:36.694Z,100724.12
2019-02-08T14:57:16.453Z,100721.60
2019-02-08T14:59:45.382Z,100717.82
2019-02-08T15:02:17.662Z,100721.86
2019-02-08T15:04:51.173Z,100723.21
2019-02-08T15:07:25.156Z,100721.49
2019-02-08T15:09:57.000Z,100714.95
2019-02-08T15:12:29.087Z,100715.86
2019-02-08T15:15:01.145Z,100718.10
2019-02-08T15:17:35.534Z,100706.73
2019-02-08T15:20:12.534Z,100701.50
2019-02-08T15:22:44.662Z,100697.14
2019-02-08T15:25:17.662Z,100698.00
2019-02-08T15:27:52.182Z,100699.77
2019-02-08T15:30:29.126Z,100695.42
2019-02-08T15:33:03.909Z,100695.41
2019-02-08T15:35:38.569Z,100691.50
2019-02-08T15:38:11.877Z,100697.19
2019-02-08T15:40:48.202Z,100702.40
2019-02-08T15:43:24.918Z,100702.88
2019-02-08T15:46:06.462Z,100711.13
2019-02-08T15:48:54.321Z,100701.47
2019-02-08T15:51:29.413Z,100698.84
2019-02-08T15:54:04.349Z,100702.30
2019-02-08T15:56:41.135Z,100704.87
2019-02-08T15:59:13.291Z,100706.58
2019-02-08T16:01:47.993Z,100698.28
2019-02-08T16:04:20.234Z,100704.74
2019-02-08T16:06:52.633Z,100701.63
2019-02-08T16:09:25.052Z,100699.80
2019-02-08T16:11:57.345Z,100705.42
2019-02-08T16:14:35.097Z,100705.35
2019-02-08T16:17:07.642Z,100703.12
2019-02-08T16:19:50.524Z,100700.88
2019-02-08T16:22:18.205Z,100697.03
2019-02-08T16:24:50.225Z,100690.82
2019-02-08T16:27:49.029Z,100682.12
2019-02-08T16:34:04.506Z,100674.50
2019-02-08T16:36:52.674Z,100687.58
2019-02-08T16:43:08.085Z,100686.96
2019-02-08T16:46:04.673Z,100694.80
2019-02-08T16:48:36.925Z,100681.71
2019-02-08T16:51:11.745Z,100678.70
2019-02-08T16:57:21.737Z,100676.03
2019-02-08T17:04:15.421Z,100682.03
2019-02-08T17:06:49.360Z,100680.27
2019-02-08T17:12:57.903Z,100672.83
2019-02-08T17:15:37.207Z,100675.48
2019-02-08T17:18:42.849Z,100677.23
2019-02-08T17:25:51.471Z,100680.64
2019-02-08T17:29:02.757Z,100667.13
2019-02-08T17:32:09.149Z,100668.34
2019-02-08T17:34:40.131Z,100663.63
2019-02-08T17:37:14.303Z,100657.11
2019-02-08T17:39:57.537Z,100656.75
2019-02-08T17:42:46.457Z,100657.52
2019-02-08T17:45:21.402Z,100653.48
2019-02-08T17:48:14.789Z,100652.23
2019-02-08T17:51:17.475Z,100641.81
2019-02-08T17:53:51.586Z,100637.00
2019-02-08T17:56:45.765Z,100637.11
2019-02-08T17:59:27.528Z,100630.14
2019-02-08T18:02:01.539Z,100620.06
2019-02-08T18:06:22.666Z,100620.06
2019-02-08T18:08:48.879Z,100624.44
2019-02-08T18:17:15.720Z,100612.65
2019-02-08T18:20:48.340Z,100603.50
2019-02-08T18:25:22.496Z,100601.78
2019-02-08T18:26:21.408Z,100600.35
2019-02-08T18:28:55.278Z,100598.17
2019-02-08T18:33:03.148Z,100596.84
2019-02-08T18:35:21.842Z,100597.80
2019-02-08T18:45:38.429Z,100594.75
2019-02-08T18:52:20.696Z,100591.17
2019-02-08T18:56:07.136Z,100585.02
2019-02-08T19:02:17.666Z,100594.73
2019-02-08T20:13:17.593Z,100495.79
2019-02-08T20:15:49.745Z,100495.37
2019-02-08T20:18:21.786Z,100485.33
2019-02-08T20:20:53.724Z,100487.94
2019-02-08T20:23:26.251Z,100481.42
2019-02-08T20:25:58.345Z,100483.63
2019-02-08T20:28:33.147Z,100480.98
2019-02-08T20:31:05.529Z,100484.06
2019-02-08T20:33:37.991Z,100480.11
2019-02-08T20:36:10.450Z,100477.92
2019-02-08T20:38:42.541Z,100479.27
2019-02-08T20:41:14.922Z,100465.28
2019-02-08T20:43:47.229Z,100464.84
2019-02-08T20:46:19.947Z,100453.09
2019-02-08T20:48:52.060Z,100446.11
2019-02-08T20:51:24.624Z,100447.86
2019-02-08T20:53:56.832Z,100448.72
2019-02-08T20:56:29.058Z,100450.04
2019-02-08T20:59:01.319Z,100446.54
2019-02-08T21:01:33.438Z,100445.67
2019-02-08T21:04:06.007Z,100447.88
2019-02-08T21:06:38.323Z,100445.68
2019-02-08T21:09:15.298Z,100435.20
2019-02-08T21:11:50.009Z,100433.03
2019-02-08T21:14:22.329Z,100428.20
2019-02-08T21:16:54.524Z,100428.21
2019-02-08T21:19:26.388Z,100425.16
2019-02-08T21:21:58.515Z,100411.62
2019-02-08T21:24:30.551Z,100405.05
2019-02-08T21:27:02.733Z,100404.19
2019-02-08T21:29:34.731Z,100393.25
2019-02-08T21:32:06.900Z,100402.00
2019-02-08T21:34:38.860Z,100386.27
2019-02-08T21:37:10.964Z,100391.06
2019-02-08T21:39:42.786Z,100384.09
2019-02-08T21:42:14.822Z,100383.20
2019-02-08T21:44:47.456Z,100370.11
2019-02-08T21:47:19.261Z,100373.59
2019-02-08T21:49:51.335Z,100376.23
2019-02-08T21:52:23.303Z,100366.59
2019-02-08T21:54:55.149Z,100374.48
2019-02-08T21:57:27.067Z,100372.31
2019-02-08T21:59:59.030Z,100365.75
2019-02-08T22:02:30.878Z,100367.05
2019-02-08T22:05:02.806Z,100357.88
2019-02-08T22:07:35.791Z,100353.50
2019-02-08T22:10:10.056Z,100344.77
2019-02-08T22:12:41.883Z,100343.01
2019-02-08T22:15:17.526Z,100339.93
2019-02-08T22:17:49.590Z,100339.49
2019-02-08T22:20:21.510Z,100334.69
2019-02-08T22:22:53.470Z,100338.20
2019-02-08T22:25:26.818Z,100326.81
2019-02-08T22:27:58.810Z,100326.84
2019-02-08T22:30:30.872Z,100330.30
2019-02-08T22:33:02.974Z,100324.22
2019-02-08T22:35:34.790Z,100324.22
2019-02-08T22:38:08.737Z,100316.79
2019-02-08T22:40:40.875Z,100321.61
2019-02-08T22:43:12.702Z,100315.08
2019-02-08T22:45:44.670Z,100315.91
2019-02-08T22:48:16.523Z,100306.77
2019-02-08T22:50:48.398Z,100309.38
2019-02-08T22:53:20.174Z,100298.02
2019-02-08T22:55:51.937Z,100297.59
2019-02-08T22:58:23.735Z,100292.76
2019-02-08T23:01:33.622Z,100290.59
2019-02-08T23:04:11.909Z,100288.42
2019-02-08T23:06:45.091Z,100282.29
2019-02-08T23:09:23.711Z,100276.17
2019-02-08T23:11:55.575Z,100269.19
2019-02-08T23:14:27.403Z,100262.66
2019-02-08T23:16:59.332Z,100247.37
2019-02-08T23:19:31.192Z,100249.96
2019-02-08T23:22:03.088Z,100249.50
2019-02-08T23:24:34.918Z,100241.66
2019-02-08T23:27:06.809Z,100240.81
2019-02-08T23:29:38.646Z,100239.53
2019-02-08T23:32:10.414Z,100238.62
2019-02-08T23:34:42.275Z,100239.06
2019-02-08T23:37:14.098Z,100233.41
2019-02-08T23:39:45.939Z,100222.02
2019-02-08T23:42:17.821Z,100222.90
2019-02-08T23:44:50.738Z,100222.02
2019-02-08T23:47:22.579Z,100222.47
2019-02-08T23:49:54.439Z,100219.00
2019-02-08T23:52:26.311Z,100210.67
2019-02-08T23:54:58.154Z,100211.16
2019-02-08T23:57:31.572Z,100205.92
